sensor_id;sensor_type;location;lat;lon;timestamp;P1;durP1;ratioP1;P2;durP2;ratioP2
59828;SDS011;45708;51.848;107.620;2023-05-10T00:02:01;43.35;;;23.00;;
59828;SDS011;45708;51.848;107.620;2023-05-10T00:07:01;46.35;;;23.88;;
59828;SDS011;45708;51.848;107.620;2023-05-10T00:12:02;50.45;;;26.13;;
59828;SDS011;45708;51.848;107.620;2023-05-10T00:17:03;44.17;;;25.17;;
59828;SDS011;45708;51.848;107.620;2023-05-10T00:22:04;50.88;;;27.42;;
59828;SDS011;45708;51.848;107.620;2023-05-10T00:27:05;48.50;;;25.10;;
59828;SDS011;45708;51.848;107.620;2023-05-10T00:32:05;43.35;;;26.75;;
59828;SDS011;45708;51.848;107.620;2023-05-10T00:37:06;40.78;;;24.60;;
59828;SDS011;45708;51.848;107.620;2023-05-10T00:42:07;46.45;;;23.13;;
59828;SDS011;45708;51.848;107.620;2023-05-10T00:47:08;40.97;;;24.20;;
59828;SDS011;45708;51.848;107.620;2023-05-10T00:52:10;38.40;;;25.15;;
59828;SDS011;45708;51.848;107.620;2023-05-10T00:57:11;45.78;;;25.17;;
59828;SDS011;45708;51.848;107.620;2023-05-10T01:02:11;47.03;;;23.75;;
59828;SDS011;45708;51.848;107.620;2023-05-10T01:07:12;41.35;;;24.50;;
59828;SDS011;45708;51.848;107.620;2023-05-10T01:12:14;41.83;;;25.55;;
59828;SDS011;45708;51.848;107.620;2023-05-10T01:17:15;44.50;;;26.30;;
59828;SDS011;45708;51.848;107.620;2023-05-10T01:33:18;38.47;;;24.85;;
59828;SDS011;45708;51.848;107.620;2023-05-10T01:43:42;41.95;;;25.95;;
59828;SDS011;45708;51.848;107.620;2023-05-10T01:48:53;42.35;;;23.73;;
59828;SDS011;45708;51.848;107.620;2023-05-10T01:53:58;41.22;;;24.88;;
59828;SDS011;45708;51.848;107.620;2023-05-10T01:59:04;40.50;;;24.40;;
59828;SDS011;45708;51.848;107.620;2023-05-10T02:04:13;41.22;;;24.63;;
59828;SDS011;45708;51.848;107.620;2023-05-10T02:09:17;38.83;;;23.73;;
59828;SDS011;45708;51.848;107.620;2023-05-10T02:14:19;41.63;;;24.95;;
59828;SDS011;45708;51.848;107.620;2023-05-10T02:19:21;51.05;;;26.15;;
59828;SDS011;45708;51.848;107.620;2023-05-10T02:24:23;40.47;;;23.77;;
59828;SDS011;45708;51.848;107.620;2023-05-10T02:29:25;42.08;;;26.55;;
59828;SDS011;45708;51.848;107.620;2023-05-10T02:34:28;37.58;;;23.17;;
59828;SDS011;45708;51.848;107.620;2023-05-10T02:39:30;42.50;;;24.15;;
59828;SDS011;45708;51.848;107.620;2023-05-10T02:44:33;33.25;;;19.40;;
59828;SDS011;45708;51.848;107.620;2023-05-10T02:49:35;34.10;;;18.40;;
59828;SDS011;45708;51.848;107.620;2023-05-10T02:54:41;25.48;;;16.77;;
59828;SDS011;45708;51.848;107.620;2023-05-10T02:59:45;28.02;;;13.57;;
59828;SDS011;45708;51.848;107.620;2023-05-10T03:04:46;25.67;;;13.48;;
59828;SDS011;45708;51.848;107.620;2023-05-10T03:09:50;22.13;;;12.07;;
59828;SDS011;45708;51.848;107.620;2023-05-10T03:20:20;23.33;;;12.65;;
59828;SDS011;45708;51.848;107.620;2023-05-10T03:25:25;19.23;;;10.52;;
59828;SDS011;45708;51.848;107.620;2023-05-10T03:30:27;18.48;;;9.63;;
59828;SDS011;45708;51.848;107.620;2023-05-10T03:35:29;18.60;;;10.13;;
59828;SDS011;45708;51.848;107.620;2023-05-10T03:40:30;16.75;;;9.63;;
59828;SDS011;45708;51.848;107.620;2023-05-10T03:45:31;17.25;;;8.85;;
59828;SDS011;45708;51.848;107.620;2023-05-10T03:50:31;19.38;;;9.52;;
59828;SDS011;45708;51.848;107.620;2023-05-10T03:55:32;20.55;;;10.30;;
59828;SDS011;45708;51.848;107.620;2023-05-10T04:00:33;20.63;;;13.20;;
59828;SDS011;45708;51.848;107.620;2023-05-10T04:05:34;23.83;;;13.25;;
59828;SDS011;45708;51.848;107.620;2023-05-10T04:10:35;32.75;;;15.70;;
59828;SDS011;45708;51.848;107.620;2023-05-10T04:15:35;32.75;;;19.05;;
59828;SDS011;45708;51.848;107.620;2023-05-10T04:20:36;68.32;;;41.55;;
59828;SDS011;45708;51.848;107.620;2023-05-10T04:25:37;35.13;;;20.27;;
59828;SDS011;45708;51.848;107.620;2023-05-10T04:30:38;26.67;;;12.25;;
59828;SDS011;45708;51.848;107.620;2023-05-10T04:35:39;15.85;;;9.38;;
59828;SDS011;45708;51.848;107.620;2023-05-10T04:40:39;30.25;;;17.17;;
59828;SDS011;45708;51.848;107.620;2023-05-10T04:45:40;14.27;;;7.68;;
59828;SDS011;45708;51.848;107.620;2023-05-10T04:50:41;16.20;;;8.40;;
59828;SDS011;45708;51.848;107.620;2023-05-10T04:55:43;8.20;;;4.50;;
59828;SDS011;45708;51.848;107.620;2023-05-10T05:00:45;10.40;;;4.13;;
59828;SDS011;45708;51.848;107.620;2023-05-10T05:05:46;13.38;;;8.73;;
59828;SDS011;45708;51.848;107.620;2023-05-10T05:10:47;11.93;;;5.28;;
59828;SDS011;45708;51.848;107.620;2023-05-10T05:15:48;6.30;;;3.65;;
59828;SDS011;45708;51.848;107.620;2023-05-10T05:20:49;24.30;;;11.48;;
59828;SDS011;45708;51.848;107.620;2023-05-10T05:25:53;12.68;;;6.07;;
59828;SDS011;45708;51.848;107.620;2023-05-10T05:30:53;12.73;;;3.58;;
59828;SDS011;45708;51.848;107.620;2023-05-10T05:35:56;7.55;;;2.05;;
59828;SDS011;45708;51.848;107.620;2023-05-10T05:40:56;13.93;;;4.43;;
59828;SDS011;45708;51.848;107.620;2023-05-10T05:45:57;22.15;;;4.50;;
59828;SDS011;45708;51.848;107.620;2023-05-10T05:50:58;16.17;;;5.05;;
59828;SDS011;45708;51.848;107.620;2023-05-10T05:55:59;9.55;;;3.80;;
59828;SDS011;45708;51.848;107.620;2023-05-10T06:00:59;6.35;;;2.38;;
59828;SDS011;45708;51.848;107.620;2023-05-10T06:06:00;6.07;;;2.05;;
59828;SDS011;45708;51.848;107.620;2023-05-10T06:11:01;4.72;;;1.70;;
59828;SDS011;45708;51.848;107.620;2023-05-10T06:16:02;9.63;;;2.75;;
59828;SDS011;45708;51.848;107.620;2023-05-10T06:21:03;8.52;;;1.50;;
59828;SDS011;45708;51.848;107.620;2023-05-10T06:26:04;7.53;;;2.65;;
59828;SDS011;45708;51.848;107.620;2023-05-10T06:31:05;5.53;;;1.45;;
59828;SDS011;45708;51.848;107.620;2023-05-10T06:36:06;23.02;;;5.20;;
59828;SDS011;45708;51.848;107.620;2023-05-10T06:41:07;9.45;;;2.35;;
59828;SDS011;45708;51.848;107.620;2023-05-10T06:46:08;35.42;;;5.00;;
59828;SDS011;45708;51.848;107.620;2023-05-10T06:51:09;6.97;;;2.22;;
59828;SDS011;45708;51.848;107.620;2023-05-10T06:56:10;8.02;;;2.78;;
59828;SDS011;45708;51.848;107.620;2023-05-10T07:01:12;9.70;;;2.97;;
59828;SDS011;45708;51.848;107.620;2023-05-10T07:06:12;8.40;;;3.38;;
59828;SDS011;45708;51.848;107.620;2023-05-10T07:11:13;2.50;;;1.35;;
59828;SDS011;45708;51.848;107.620;2023-05-10T07:16:14;8.13;;;2.00;;
59828;SDS011;45708;51.848;107.620;2023-05-10T07:21:15;5.55;;;1.38;;
59828;SDS011;45708;51.848;107.620;2023-05-10T07:26:16;3.17;;;1.50;;
59828;SDS011;45708;51.848;107.620;2023-05-10T07:31:16;4.85;;;1.77;;
59828;SDS011;45708;51.848;107.620;2023-05-10T07:36:17;6.80;;;2.33;;
59828;SDS011;45708;51.848;107.620;2023-05-10T07:41:18;6.20;;;1.83;;
59828;SDS011;45708;51.848;107.620;2023-05-10T07:46:19;7.07;;;2.08;;
59828;SDS011;45708;51.848;107.620;2023-05-10T07:51:19;2.63;;;1.08;;
59828;SDS011;45708;51.848;107.620;2023-05-10T08:01:26;4.93;;;1.88;;
59828;SDS011;45708;51.848;107.620;2023-05-10T08:06:30;9.82;;;1.63;;
59828;SDS011;45708;51.848;107.620;2023-05-10T08:11:31;8.57;;;1.42;;
59828;SDS011;45708;51.848;107.620;2023-05-10T08:16:31;4.65;;;1.40;;
59828;SDS011;45708;51.848;107.620;2023-05-10T08:21:32;7.68;;;2.25;;
59828;SDS011;45708;51.848;107.620;2023-05-10T08:26:33;8.32;;;3.53;;
59828;SDS011;45708;51.848;107.620;2023-05-10T08:31:34;3.72;;;1.38;;
59828;SDS011;45708;51.848;107.620;2023-05-10T08:36:35;11.30;;;3.22;;
59828;SDS011;45708;51.848;107.620;2023-05-10T08:41:36;7.10;;;1.67;;
59828;SDS011;45708;51.848;107.620;2023-05-10T08:46:40;9.55;;;2.22;;
59828;SDS011;45708;51.848;107.620;2023-05-10T08:51:49;9.13;;;5.30;;
59828;SDS011;45708;51.848;107.620;2023-05-10T08:56:54;9.32;;;2.95;;
59828;SDS011;45708;51.848;107.620;2023-05-10T09:01:58;5.32;;;2.85;;
59828;SDS011;45708;51.848;107.620;2023-05-10T09:06:59;3.42;;;1.50;;
59828;SDS011;45708;51.848;107.620;2023-05-10T09:12:00;10.60;;;2.42;;
59828;SDS011;45708;51.848;107.620;2023-05-10T09:17:01;19.95;;;5.63;;
59828;SDS011;45708;51.848;107.620;2023-05-10T09:22:03;10.20;;;4.07;;
59828;SDS011;45708;51.848;107.620;2023-05-10T09:27:04;6.95;;;3.78;;
59828;SDS011;45708;51.848;107.620;2023-05-10T09:32:04;8.07;;;3.95;;
59828;SDS011;45708;51.848;107.620;2023-05-10T09:37:05;13.77;;;4.45;;
59828;SDS011;45708;51.848;107.620;2023-05-10T09:42:07;9.35;;;4.20;;
59828;SDS011;45708;51.848;107.620;2023-05-10T09:47:09;10.20;;;5.75;;
59828;SDS011;45708;51.848;107.620;2023-05-10T09:52:10;10.82;;;6.30;;
59828;SDS011;45708;51.848;107.620;2023-05-10T09:57:18;9.43;;;5.93;;
59828;SDS011;45708;51.848;107.620;2023-05-10T10:02:21;16.13;;;6.65;;
59828;SDS011;45708;51.848;107.620;2023-05-10T10:07:29;18.17;;;7.07;;
59828;SDS011;45708;51.848;107.620;2023-05-10T10:12:30;13.63;;;6.20;;
59828;SDS011;45708;51.848;107.620;2023-05-10T10:17:31;10.95;;;5.93;;
59828;SDS011;45708;51.848;107.620;2023-05-10T10:22:33;18.13;;;5.97;;
59828;SDS011;45708;51.848;107.620;2023-05-10T10:38:09;12.35;;;4.78;;
59828;SDS011;45708;51.848;107.620;2023-05-10T10:43:28;14.88;;;5.65;;
59828;SDS011;45708;51.848;107.620;2023-05-10T10:48:29;13.98;;;6.18;;
59828;SDS011;45708;51.848;107.620;2023-05-10T10:53:30;17.50;;;7.38;;
59828;SDS011;45708;51.848;107.620;2023-05-10T10:58:32;12.23;;;5.50;;
59828;SDS011;45708;51.848;107.620;2023-05-10T11:03:33;16.42;;;7.18;;
59828;SDS011;45708;51.848;107.620;2023-05-10T11:08:39;7.00;;;3.95;;
59828;SDS011;45708;51.848;107.620;2023-05-10T11:13:43;7.78;;;3.53;;
59828;SDS011;45708;51.848;107.620;2023-05-10T11:18:58;9.55;;;5.07;;
59828;SDS011;45708;51.848;107.620;2023-05-10T11:24:12;8.88;;;4.18;;
59828;SDS011;45708;51.848;107.620;2023-05-10T11:29:15;9.57;;;4.20;;
59828;SDS011;45708;51.848;107.620;2023-05-10T11:34:26;9.25;;;4.82;;
59828;SDS011;45708;51.848;107.620;2023-05-10T11:39:30;13.10;;;5.00;;
59828;SDS011;45708;51.848;107.620;2023-05-10T11:44:32;6.50;;;3.22;;
59828;SDS011;45708;51.848;107.620;2023-05-10T11:49:33;11.93;;;4.95;;
59828;SDS011;45708;51.848;107.620;2023-05-10T11:54:34;9.05;;;4.97;;
59828;SDS011;45708;51.848;107.620;2023-05-10T11:59:36;18.27;;;7.97;;
59828;SDS011;45708;51.848;107.620;2023-05-10T12:04:37;9.77;;;4.95;;
59828;SDS011;45708;51.848;107.620;2023-05-10T12:09:42;11.05;;;6.03;;
59828;SDS011;45708;51.848;107.620;2023-05-10T12:14:44;12.27;;;6.00;;
59828;SDS011;45708;51.848;107.620;2023-05-10T12:19:50;6.80;;;3.53;;
59828;SDS011;45708;51.848;107.620;2023-05-10T12:24:51;8.15;;;3.40;;
59828;SDS011;45708;51.848;107.620;2023-05-10T12:29:52;7.82;;;3.53;;
59828;SDS011;45708;51.848;107.620;2023-05-10T12:34:53;15.30;;;8.73;;
59828;SDS011;45708;51.848;107.620;2023-05-10T12:39:53;30.30;;;9.77;;
59828;SDS011;45708;51.848;107.620;2023-05-10T12:44:55;24.08;;;10.57;;
59828;SDS011;45708;51.848;107.620;2023-05-10T12:49:56;40.97;;;19.83;;
59828;SDS011;45708;51.848;107.620;2023-05-10T12:54:58;53.25;;;22.70;;
59828;SDS011;45708;51.848;107.620;2023-05-10T12:59:59;54.53;;;22.52;;
59828;SDS011;45708;51.848;107.620;2023-05-10T13:05:00;43.25;;;23.15;;
59828;SDS011;45708;51.848;107.620;2023-05-10T13:10:01;44.33;;;22.48;;
59828;SDS011;45708;51.848;107.620;2023-05-10T13:15:02;37.75;;;17.95;;
59828;SDS011;45708;51.848;107.620;2023-05-10T13:20:03;20.08;;;11.05;;
59828;SDS011;45708;51.848;107.620;2023-05-10T13:25:04;21.20;;;11.00;;
59828;SDS011;45708;51.848;107.620;2023-05-10T13:30:06;16.42;;;8.82;;
59828;SDS011;45708;51.848;107.620;2023-05-10T13:35:09;18.85;;;9.40;;
59828;SDS011;45708;51.848;107.620;2023-05-10T13:40:10;24.42;;;10.95;;
59828;SDS011;45708;51.848;107.620;2023-05-10T13:45:11;13.55;;;7.57;;
59828;SDS011;45708;51.848;107.620;2023-05-10T13:50:12;11.98;;;5.72;;
59828;SDS011;45708;51.848;107.620;2023-05-10T13:55:13;21.08;;;8.43;;
59828;SDS011;45708;51.848;107.620;2023-05-10T14:00:14;22.55;;;9.55;;
59828;SDS011;45708;51.848;107.620;2023-05-10T14:05:15;19.83;;;9.68;;
59828;SDS011;45708;51.848;107.620;2023-05-10T14:10:15;24.63;;;10.88;;
59828;SDS011;45708;51.848;107.620;2023-05-10T14:15:16;19.35;;;8.35;;
59828;SDS011;45708;51.848;107.620;2023-05-10T14:20:17;15.63;;;7.82;;
59828;SDS011;45708;51.848;107.620;2023-05-10T14:25:18;13.25;;;7.15;;
59828;SDS011;45708;51.848;107.620;2023-05-10T14:30:19;18.02;;;6.85;;
59828;SDS011;45708;51.848;107.620;2023-05-10T14:35:20;14.00;;;6.32;;
59828;SDS011;45708;51.848;107.620;2023-05-10T14:40:20;10.38;;;4.82;;
59828;SDS011;45708;51.848;107.620;2023-05-10T14:45:22;6.63;;;3.60;;
59828;SDS011;45708;51.848;107.620;2023-05-10T14:50:24;10.20;;;4.47;;
59828;SDS011;45708;51.848;107.620;2023-05-10T14:55:25;9.65;;;4.63;;
59828;SDS011;45708;51.848;107.620;2023-05-10T15:00:26;10.27;;;4.57;;
59828;SDS011;45708;51.848;107.620;2023-05-10T15:05:29;9.10;;;5.13;;
59828;SDS011;45708;51.848;107.620;2023-05-10T15:10:30;9.02;;;3.92;;
59828;SDS011;45708;51.848;107.620;2023-05-10T15:15:31;7.03;;;4.38;;
59828;SDS011;45708;51.848;107.620;2023-05-10T15:20:32;8.23;;;5.10;;
59828;SDS011;45708;51.848;107.620;2023-05-10T15:25:32;14.57;;;6.72;;
59828;SDS011;45708;51.848;107.620;2023-05-10T15:30:33;9.52;;;5.40;;
59828;SDS011;45708;51.848;107.620;2023-05-10T15:35:34;11.25;;;6.03;;
59828;SDS011;45708;51.848;107.620;2023-05-10T15:40:35;18.30;;;8.45;;
59828;SDS011;45708;51.848;107.620;2023-05-10T15:45:36;14.88;;;6.40;;
59828;SDS011;45708;51.848;107.620;2023-05-10T15:50:37;13.50;;;6.05;;
59828;SDS011;45708;51.848;107.620;2023-05-10T15:55:38;16.73;;;6.97;;
59828;SDS011;45708;51.848;107.620;2023-05-10T16:00:38;16.40;;;8.23;;
59828;SDS011;45708;51.848;107.620;2023-05-10T16:05:40;14.57;;;8.18;;
59828;SDS011;45708;51.848;107.620;2023-05-10T16:10:42;19.08;;;10.10;;
59828;SDS011;45708;51.848;107.620;2023-05-10T16:15:43;17.88;;;9.80;;
59828;SDS011;45708;51.848;107.620;2023-05-10T16:20:44;16.98;;;9.23;;
59828;SDS011;45708;51.848;107.620;2023-05-10T16:25:45;17.80;;;9.27;;
59828;SDS011;45708;51.848;107.620;2023-05-10T16:30:46;13.30;;;8.80;;
59828;SDS011;45708;51.848;107.620;2023-05-10T16:35:47;14.35;;;7.95;;
59828;SDS011;45708;51.848;107.620;2023-05-10T16:40:48;12.88;;;7.78;;
59828;SDS011;45708;51.848;107.620;2023-05-10T16:45:49;13.38;;;7.80;;
59828;SDS011;45708;51.848;107.620;2023-05-10T16:50:49;16.70;;;7.60;;
59828;SDS011;45708;51.848;107.620;2023-05-10T16:55:50;13.32;;;8.18;;
59828;SDS011;45708;51.848;107.620;2023-05-10T17:00:51;17.23;;;8.13;;
59828;SDS011;45708;51.848;107.620;2023-05-10T17:05:52;11.65;;;6.55;;
59828;SDS011;45708;51.848;107.620;2023-05-10T17:10:53;15.82;;;8.13;;
59828;SDS011;45708;51.848;107.620;2023-05-10T17:15:54;12.63;;;7.18;;
59828;SDS011;45708;51.848;107.620;2023-05-10T17:20:55;15.90;;;7.53;;
59828;SDS011;45708;51.848;107.620;2023-05-10T17:25:55;11.77;;;6.50;;
59828;SDS011;45708;51.848;107.620;2023-05-10T17:30:56;14.18;;;7.43;;
59828;SDS011;45708;51.848;107.620;2023-05-10T17:35:57;18.10;;;7.45;;
59828;SDS011;45708;51.848;107.620;2023-05-10T17:40:58;17.05;;;8.52;;
59828;SDS011;45708;51.848;107.620;2023-05-10T17:45:59;12.45;;;7.55;;
59828;SDS011;45708;51.848;107.620;2023-05-10T17:51:00;14.23;;;7.32;;
59828;SDS011;45708;51.848;107.620;2023-05-10T17:56:01;14.80;;;7.43;;
59828;SDS011;45708;51.848;107.620;2023-05-10T18:01:01;14.48;;;7.07;;
59828;SDS011;45708;51.848;107.620;2023-05-10T18:06:02;16.35;;;7.50;;
59828;SDS011;45708;51.848;107.620;2023-05-10T18:11:04;14.85;;;7.50;;
59828;SDS011;45708;51.848;107.620;2023-05-10T18:16:05;17.83;;;8.68;;
59828;SDS011;45708;51.848;107.620;2023-05-10T18:21:06;16.40;;;9.00;;
59828;SDS011;45708;51.848;107.620;2023-05-10T18:26:07;13.55;;;8.15;;
59828;SDS011;45708;51.848;107.620;2023-05-10T18:31:08;13.70;;;7.78;;
59828;SDS011;45708;51.848;107.620;2023-05-10T18:36:08;15.38;;;7.38;;
59828;SDS011;45708;51.848;107.620;2023-05-10T18:41:09;13.90;;;7.07;;
59828;SDS011;45708;51.848;107.620;2023-05-10T18:46:10;13.55;;;7.05;;
59828;SDS011;45708;51.848;107.620;2023-05-10T18:51:11;14.50;;;6.53;;
59828;SDS011;45708;51.848;107.620;2023-05-10T18:56:12;12.65;;;6.68;;
59828;SDS011;45708;51.848;107.620;2023-05-10T19:01:12;12.88;;;6.63;;
59828;SDS011;45708;51.848;107.620;2023-05-10T19:06:13;13.45;;;7.18;;
59828;SDS011;45708;51.848;107.620;2023-05-10T19:11:14;10.80;;;6.18;;
59828;SDS011;45708;51.848;107.620;2023-05-10T19:16:15;14.85;;;6.72;;
59828;SDS011;45708;51.848;107.620;2023-05-10T19:21:16;18.05;;;8.32;;
59828;SDS011;45708;51.848;107.620;2023-05-10T19:26:17;14.95;;;7.13;;
59828;SDS011;45708;51.848;107.620;2023-05-10T19:31:18;16.02;;;7.40;;
59828;SDS011;45708;51.848;107.620;2023-05-10T19:36:19;11.95;;;7.43;;
59828;SDS011;45708;51.848;107.620;2023-05-10T19:41:20;12.50;;;7.55;;
59828;SDS011;45708;51.848;107.620;2023-05-10T19:46:21;17.63;;;8.35;;
59828;SDS011;45708;51.848;107.620;2023-05-10T19:51:21;11.20;;;7.72;;
59828;SDS011;45708;51.848;107.620;2023-05-10T19:56:22;13.25;;;7.22;;
59828;SDS011;45708;51.848;107.620;2023-05-10T20:01:23;12.38;;;7.38;;
59828;SDS011;45708;51.848;107.620;2023-05-10T20:06:24;13.50;;;7.43;;
59828;SDS011;45708;51.848;107.620;2023-05-10T20:11:25;14.25;;;8.70;;
59828;SDS011;45708;51.848;107.620;2023-05-10T20:16:26;12.07;;;7.40;;
59828;SDS011;45708;51.848;107.620;2023-05-10T20:21:27;15.57;;;9.13;;
59828;SDS011;45708;51.848;107.620;2023-05-10T20:26:27;14.95;;;8.55;;
59828;SDS011;45708;51.848;107.620;2023-05-10T20:31:28;13.40;;;8.57;;
59828;SDS011;45708;51.848;107.620;2023-05-10T20:36:29;12.75;;;8.75;;
59828;SDS011;45708;51.848;107.620;2023-05-10T20:41:30;12.85;;;8.10;;
59828;SDS011;45708;51.848;107.620;2023-05-10T20:46:31;15.02;;;7.90;;
59828;SDS011;45708;51.848;107.620;2023-05-10T20:51:32;16.02;;;8.25;;
59828;SDS011;45708;51.848;107.620;2023-05-10T20:56:33;13.55;;;7.22;;
59828;SDS011;45708;51.848;107.620;2023-05-10T21:01:34;14.07;;;7.45;;
59828;SDS011;45708;51.848;107.620;2023-05-10T21:06:34;12.40;;;7.38;;
59828;SDS011;45708;51.848;107.620;2023-05-10T21:11:35;15.07;;;8.43;;
59828;SDS011;45708;51.848;107.620;2023-05-10T21:16:36;11.85;;;6.32;;
59828;SDS011;45708;51.848;107.620;2023-05-10T21:21:37;12.23;;;7.00;;
59828;SDS011;45708;51.848;107.620;2023-05-10T21:26:38;10.55;;;6.07;;
59828;SDS011;45708;51.848;107.620;2023-05-10T21:31:39;12.93;;;7.50;;
59828;SDS011;45708;51.848;107.620;2023-05-10T21:36:40;11.10;;;6.72;;
59828;SDS011;45708;51.848;107.620;2023-05-10T21:41:40;13.55;;;7.38;;
59828;SDS011;45708;51.848;107.620;2023-05-10T21:46:41;9.10;;;5.43;;
59828;SDS011;45708;51.848;107.620;2023-05-10T21:51:42;12.32;;;7.20;;
59828;SDS011;45708;51.848;107.620;2023-05-10T21:56:43;13.85;;;8.35;;
59828;SDS011;45708;51.848;107.620;2023-05-10T22:01:43;15.93;;;7.45;;
59828;SDS011;45708;51.848;107.620;2023-05-10T22:06:44;14.00;;;8.70;;
59828;SDS011;45708;51.848;107.620;2023-05-10T22:11:45;16.80;;;8.77;;
59828;SDS011;45708;51.848;107.620;2023-05-10T22:16:46;15.90;;;10.57;;
59828;SDS011;45708;51.848;107.620;2023-05-10T22:21:47;16.60;;;9.80;;
59828;SDS011;45708;51.848;107.620;2023-05-10T22:26:47;14.02;;;8.88;;
59828;SDS011;45708;51.848;107.620;2023-05-10T22:31:48;13.18;;;6.80;;
59828;SDS011;45708;51.848;107.620;2023-05-10T22:36:50;9.73;;;6.65;;
59828;SDS011;45708;51.848;107.620;2023-05-10T22:41:50;13.43;;;5.00;;
59828;SDS011;45708;51.848;107.620;2023-05-10T22:46:51;17.20;;;5.25;;
59828;SDS011;45708;51.848;107.620;2023-05-10T22:51:52;10.25;;;4.55;;
59828;SDS011;45708;51.848;107.620;2023-05-10T22:56:55;18.83;;;5.40;;
59828;SDS011;45708;51.848;107.620;2023-05-10T23:01:56;8.02;;;4.22;;
59828;SDS011;45708;51.848;107.620;2023-05-10T23:06:56;4.47;;;3.15;;
59828;SDS011;45708;51.848;107.620;2023-05-10T23:11:57;4.82;;;2.83;;
59828;SDS011;45708;51.848;107.620;2023-05-10T23:16:58;7.15;;;2.03;;
59828;SDS011;45708;51.848;107.620;2023-05-10T23:21:59;4.93;;;2.95;;
59828;SDS011;45708;51.848;107.620;2023-05-10T23:27:00;8.40;;;3.15;;
59828;SDS011;45708;51.848;107.620;2023-05-10T23:32:00;8.43;;;2.22;;
59828;SDS011;45708;51.848;107.620;2023-05-10T23:37:01;4.45;;;1.58;;
59828;SDS011;45708;51.848;107.620;2023-05-10T23:42:03;3.28;;;1.75;;
59828;SDS011;45708;51.848;107.620;2023-05-10T23:47:04;2.63;;;1.27;;
59828;SDS011;45708;51.848;107.620;2023-05-10T23:52:05;24.85;;;1.95;;
59828;SDS011;45708;51.848;107.620;2023-05-10T23:57:06;6.25;;;1.65;;
